< < Back
Terminal Aerodrome Forecast


Current Version              Previous Versions:   1  2  3  4  5  6  7  8  9  

Terminal Aerodrome Forecast

772
FTAK31 PAJN 302322
TAFAHN
TAF
PAHN 302322Z 0100/0124 11008KT P6SM VCSH FEW050 OVC080
      TEMPO 0100/0103 11010G20KT
     FM010300 11008KT P6SM SCT030 BKN080
     FM010700 VRB05KT P6SM BKN080
     FM011200 30005KT P6SM BKN080 OVC100
     FM012100 14008KT P6SM BKN050 OVC070
      AMD LTD TO CLD VIS AND WIND=



Latest METAR

819
SAUS70 KWBC 010600 RRT
MTRAHN
METAR KAHN 010551Z AUTO 00000KT 10SM BKN024 22/22 A3001 RMK AO2 SLP154
60000 T02220222 10244 20217 58001


USA.gov is the U.S. government's official web portal to all federal, state and local government web resources and services.